Terminal Aerodrome Forecast
Issued by NWS Rapid City, SD

Home | Current Version | Previous Version | Text Only | Print | Product List | Glossary Off
Versions: 1 2 3 4 5 6 7 8 9 10 11 12 13 14 15 16

000
FTUS43 KUNR 222100 AAA
TAFRAP
TAF AMD
KRAP 222147Z 2222/2318 33035G46KT P6SM SCT045 BKN060
      TEMPO 2222/2301 -RASN OVC040
     FM230100 33032G45KT 5SM -SN OVC030
     FM230500 33032G42KT 1SM -SN BLSN OVC020
     FM231100 34030G40KT 5SM -SHSN BLSN OVC025=

USA.gov is the U.S. government's official web portal to all federal, state and local government web resources and services.